Terminal Aerodrome Forecast
Issued by NWS

Home | Current Version | Previous Version | Graphics & Text | Print | Product List | Glossary On
Versions: 1 2 3 4 5 6 7 8 9 10 11 12 13
000
FTUS43 KMPX 141700
TAFRNH
TAF
KRNH 141740Z 1418/1518 25010G16KT P6SM BKN150
     FM150000 28003KT P6SM BKN120
     FM150600 30003KT P6SM SCT050 OVC080
     FM151500 32007KT P6SM BKN070=

USA.gov is the U.S. government's official web portal to all federal, state and local government web resources and services.